METAR Data
IDs: Format: Raw Decoded Include TAF

Data at: 0232 UTC 29 May 2022

RJGG 290200Z 30006KT CAVOK 23/17 Q1006 BECMG 22005KT